sensor_id;sensor_type;location;lat;lon;timestamp;P1;durP1;ratioP1;P2;durP2;ratioP2
14094;SDS011;18096;48.142;16.290;2023-07-31T09:52:26;1.20;;;0.70;;
14094;SDS011;18096;48.142;16.290;2023-07-31T09:54:52;2.08;;;1.27;;
14094;SDS011;18096;48.142;16.290;2023-07-31T09:57:18;1.30;;;1.10;;
14094;SDS011;18096;48.142;16.290;2023-07-31T09:59:47;1.80;;;1.40;;
14094;SDS011;18096;48.142;16.290;2023-07-31T10:02:15;1.58;;;1.20;;
14094;SDS011;18096;48.142;16.290;2023-07-31T10:04:46;4.95;;;1.80;;
14094;SDS011;18096;48.142;16.290;2023-07-31T10:07:17;4.30;;;1.60;;
14094;SDS011;18096;48.142;16.290;2023-07-31T10:09:44;1.80;;;1.20;;
14094;SDS011;18096;48.142;16.290;2023-07-31T10:12:11;2.50;;;1.50;;
14094;SDS011;18096;48.142;16.290;2023-07-31T10:14:39;1.30;;;1.20;;
14094;SDS011;18096;48.142;16.290;2023-07-31T10:17:07;3.20;;;0.90;;
14094;SDS011;18096;48.142;16.290;2023-07-31T10:19:33;6.43;;;0.90;;
14094;SDS011;18096;48.142;16.290;2023-07-31T10:22:00;2.40;;;1.73;;
14094;SDS011;18096;48.142;16.290;2023-07-31T10:24:28;1.30;;;0.90;;
14094;SDS011;18096;48.142;16.290;2023-07-31T10:26:54;1.57;;;0.83;;
14094;SDS011;18096;48.142;16.290;2023-07-31T10:29:25;4.97;;;1.40;;
14094;SDS011;18096;48.142;16.290;2023-07-31T10:31:52;4.27;;;0.93;;
14094;SDS011;18096;48.142;16.290;2023-07-31T10:34:20;4.43;;;1.30;;
14094;SDS011;18096;48.142;16.290;2023-07-31T10:36:46;3.53;;;1.37;;
14094;SDS011;18096;48.142;16.290;2023-07-31T10:39:34;1.23;;;0.90;;
14094;SDS011;18096;48.142;16.290;2023-07-31T10:41:58;3.53;;;1.50;;
14094;SDS011;18096;48.142;16.290;2023-07-31T10:44:24;2.20;;;1.40;;
14094;SDS011;18096;48.142;16.290;2023-07-31T10:46:53;2.13;;;0.83;;
14094;SDS011;18096;48.142;16.290;2023-07-31T10:49:23;0.97;;;0.97;;
14094;SDS011;18096;48.142;16.290;2023-07-31T10:51:48;1.97;;;1.20;;
14094;SDS011;18096;48.142;16.290;2023-07-31T10:54:15;2.20;;;0.83;;
14094;SDS011;18096;48.142;16.290;2023-07-31T10:56:46;2.20;;;1.10;;
14094;SDS011;18096;48.142;16.290;2023-07-31T10:59:15;2.43;;;1.20;;
14094;SDS011;18096;48.142;16.290;2023-07-31T11:01:55;1.13;;;1.13;;
14094;SDS011;18096;48.142;16.290;2023-07-31T11:04:23;1.43;;;1.13;;
14094;SDS011;18096;48.142;16.290;2023-07-31T11:06:55;1.57;;;1.30;;
14094;SDS011;18096;48.142;16.290;2023-07-31T11:09:22;1.03;;;0.90;;
14094;SDS011;18096;48.142;16.290;2023-07-31T11:11:47;6.73;;;2.47;;
14094;SDS011;18096;48.142;16.290;2023-07-31T11:14:16;1.10;;;1.00;;
14094;SDS011;18096;48.142;16.290;2023-07-31T11:16:42;2.00;;;1.80;;
14094;SDS011;18096;48.142;16.290;2023-07-31T11:19:08;0.90;;;0.90;;
14094;SDS011;18096;48.142;16.290;2023-07-31T11:21:34;1.67;;;1.27;;
14094;SDS011;18096;48.142;16.290;2023-07-31T11:23:59;4.10;;;2.83;;
14094;SDS011;18096;48.142;16.290;2023-07-31T11:26:25;4.57;;;0.77;;
14094;SDS011;18096;48.142;16.290;2023-07-31T11:28:51;7.03;;;2.83;;
14094;SDS011;18096;48.142;16.290;2023-07-31T11:31:17;1.57;;;1.47;;
14094;SDS011;18096;48.142;16.290;2023-07-31T11:33:43;3.83;;;1.40;;
14094;SDS011;18096;48.142;16.290;2023-07-31T11:36:16;1.43;;;1.33;;
14094;SDS011;18096;48.142;16.290;2023-07-31T11:38:42;1.47;;;1.37;;
14094;SDS011;18096;48.142;16.290;2023-07-31T11:41:08;0.87;;;0.77;;
14094;SDS011;18096;48.142;16.290;2023-07-31T11:43:34;4.53;;;1.73;;
14094;SDS011;18096;48.142;16.290;2023-07-31T11:46:01;1.40;;;1.30;;
14094;SDS011;18096;48.142;16.290;2023-07-31T11:48:36;2.20;;;2.00;;
14094;SDS011;18096;48.142;16.290;2023-07-31T11:51:03;1.42;;;1.20;;
14094;SDS011;18096;48.142;16.290;2023-07-31T11:53:47;0.98;;;0.98;;
14094;SDS011;18096;48.142;16.290;2023-07-31T11:56:19;3.20;;;1.50;;
14094;SDS011;18096;48.142;16.290;2023-07-31T11:58:49;2.10;;;1.40;;
14094;SDS011;18096;48.142;16.290;2023-07-31T12:01:20;2.00;;;1.10;;
14094;SDS011;18096;48.142;16.290;2023-07-31T12:03:47;1.52;;;1.42;;
14094;SDS011;18096;48.142;16.290;2023-07-31T12:06:14;4.53;;;1.40;;
14094;SDS011;18096;48.142;16.290;2023-07-31T12:08:39;2.72;;;1.40;;
14094;SDS011;18096;48.142;16.290;2023-07-31T12:11:06;2.60;;;1.10;;
14094;SDS011;18096;48.142;16.290;2023-07-31T12:13:34;1.35;;;1.20;;
14094;SDS011;18096;48.142;16.290;2023-07-31T12:16:01;1.30;;;1.10;;
14094;SDS011;18096;48.142;16.290;2023-07-31T12:18:29;2.00;;;1.20;;
14094;SDS011;18096;48.142;16.290;2023-07-31T12:20:59;1.92;;;1.45;;
14094;SDS011;18096;48.142;16.290;2023-07-31T12:23:43;1.70;;;1.30;;
14094;SDS011;18096;48.142;16.290;2023-07-31T12:26:10;4.67;;;1.37;;
14094;SDS011;18096;48.142;16.290;2023-07-31T12:28:41;1.60;;;0.90;;
14094;SDS011;18096;48.142;16.290;2023-07-31T12:31:11;3.40;;;1.20;;
14094;SDS011;18096;48.142;16.290;2023-07-31T12:33:42;13.00;;;1.50;;
14094;SDS011;18096;48.142;16.290;2023-07-31T12:36:11;4.05;;;1.80;;
14094;SDS011;18096;48.142;16.290;2023-07-31T12:38:38;1.52;;;1.40;;
14094;SDS011;18096;48.142;16.290;2023-07-31T12:41:04;3.30;;;1.10;;
14094;SDS011;18096;48.142;16.290;2023-07-31T12:43:32;3.70;;;1.40;;
14094;SDS011;18096;48.142;16.290;2023-07-31T12:46:01;1.80;;;1.30;;
14094;SDS011;18096;48.142;16.290;2023-07-31T12:48:28;4.20;;;1.60;;
14094;SDS011;18096;48.142;16.290;2023-07-31T12:50:54;2.63;;;1.67;;
14094;SDS011;18096;48.142;16.290;2023-07-31T12:53:19;1.70;;;1.20;;
14094;SDS011;18096;48.142;16.290;2023-07-31T12:55:45;3.90;;;1.30;;
14094;SDS011;18096;48.142;16.290;2023-07-31T12:58:11;8.13;;;1.63;;
14094;SDS011;18096;48.142;16.290;2023-07-31T13:00:36;2.03;;;1.40;;
14094;SDS011;18096;48.142;16.290;2023-07-31T13:03:03;7.43;;;1.80;;
14094;SDS011;18096;48.142;16.290;2023-07-31T13:05:28;3.05;;;1.50;;
14094;SDS011;18096;48.142;16.290;2023-07-31T13:07:54;1.75;;;1.52;;
14094;SDS011;18096;48.142;16.290;2023-07-31T13:10:20;1.30;;;1.20;;
14094;SDS011;18096;48.142;16.290;2023-07-31T13:12:47;1.98;;;1.40;;
14094;SDS011;18096;48.142;16.290;2023-07-31T13:15:13;2.60;;;1.53;;
14094;SDS011;18096;48.142;16.290;2023-07-31T13:17:39;3.10;;;1.90;;
14094;SDS011;18096;48.142;16.290;2023-07-31T13:20:05;1.60;;;1.20;;
14094;SDS011;18096;48.142;16.290;2023-07-31T13:22:32;3.10;;;2.10;;
14094;SDS011;18096;48.142;16.290;2023-07-31T13:24:57;2.60;;;1.95;;
14094;SDS011;18096;48.142;16.290;2023-07-31T13:27:23;2.40;;;1.30;;
14094;SDS011;18096;48.142;16.290;2023-07-31T13:29:49;1.70;;;1.55;;
14094;SDS011;18096;48.142;16.290;2023-07-31T13:32:18;1.52;;;1.20;;
14094;SDS011;18096;48.142;16.290;2023-07-31T13:34:45;1.35;;;1.25;;
14094;SDS011;18096;48.142;16.290;2023-07-31T13:37:11;2.90;;;1.60;;
14094;SDS011;18096;48.142;16.290;2023-07-31T13:39:37;1.60;;;1.33;;
14094;SDS011;18096;48.142;16.290;2023-07-31T13:42:03;2.15;;;1.63;;
14094;SDS011;18096;48.142;16.290;2023-07-31T13:44:31;1.98;;;1.77;;
14094;SDS011;18096;48.142;16.290;2023-07-31T13:46:57;3.17;;;1.50;;
14094;SDS011;18096;48.142;16.290;2023-07-31T13:49:22;2.70;;;1.60;;
14094;SDS011;18096;48.142;16.290;2023-07-31T13:51:48;1.10;;;1.10;;
14094;SDS011;18096;48.142;16.290;2023-07-31T13:54:13;2.20;;;1.00;;
14094;SDS011;18096;48.142;16.290;2023-07-31T13:56:40;3.10;;;1.30;;
14094;SDS011;18096;48.142;16.290;2023-07-31T13:59:06;1.67;;;1.57;;
14094;SDS011;18096;48.142;16.290;2023-07-31T14:01:32;1.92;;;1.50;;
14094;SDS011;18096;48.142;16.290;2023-07-31T14:03:57;5.23;;;1.40;;
14094;SDS011;18096;48.142;16.290;2023-07-31T14:06:23;1.93;;;1.33;;
14094;SDS011;18096;48.142;16.290;2023-07-31T14:08:49;1.50;;;1.40;;
14094;SDS011;18096;48.142;16.290;2023-07-31T14:11:14;1.00;;;0.90;;
14094;SDS011;18096;48.142;16.290;2023-07-31T14:13:40;1.83;;;1.50;;
14094;SDS011;18096;48.142;16.290;2023-07-31T14:16:05;1.50;;;1.20;;
14094;SDS011;18096;48.142;16.290;2023-07-31T14:18:31;3.23;;;1.40;;
14094;SDS011;18096;48.142;16.290;2023-07-31T14:20:57;2.78;;;1.60;;
14094;SDS011;18096;48.142;16.290;2023-07-31T14:23:23;2.00;;;1.60;;
14094;SDS011;18096;48.142;16.290;2023-07-31T14:25:48;1.70;;;1.60;;
14094;SDS011;18096;48.142;16.290;2023-07-31T14:28:14;2.15;;;1.65;;
14094;SDS011;18096;48.142;16.290;2023-07-31T14:30:39;2.40;;;1.40;;
14094;SDS011;18096;48.142;16.290;2023-07-31T14:33:05;1.70;;;1.60;;
14094;SDS011;18096;48.142;16.290;2023-07-31T14:35:31;3.40;;;0.93;;
14094;SDS011;18096;48.142;16.290;2023-07-31T14:37:57;3.75;;;1.80;;
14094;SDS011;18096;48.142;16.290;2023-07-31T14:40:22;3.22;;;1.30;;
14094;SDS011;18096;48.142;16.290;2023-07-31T14:42:48;2.80;;;1.40;;
14094;SDS011;18096;48.142;16.290;2023-07-31T14:45:14;1.40;;;1.30;;
14094;SDS011;18096;48.142;16.290;2023-07-31T14:47:39;1.65;;;1.52;;
14094;SDS011;18096;48.142;16.290;2023-07-31T14:50:05;2.07;;;1.00;;
14094;SDS011;18096;48.142;16.290;2023-07-31T14:52:31;1.50;;;1.40;;
14094;SDS011;18096;48.142;16.290;2023-07-31T14:54:57;1.80;;;1.70;;
14094;SDS011;18096;48.142;16.290;2023-07-31T14:57:22;1.65;;;1.60;;
14094;SDS011;18096;48.142;16.290;2023-07-31T14:59:48;4.40;;;1.60;;
14094;SDS011;18096;48.142;16.290;2023-07-31T15:02:14;3.80;;;1.60;;
14094;SDS011;18096;48.142;16.290;2023-07-31T15:04:40;2.10;;;1.50;;
14094;SDS011;18096;48.142;16.290;2023-07-31T15:07:06;3.10;;;2.10;;
14094;SDS011;18096;48.142;16.290;2023-07-31T15:09:31;2.20;;;1.73;;
14094;SDS011;18096;48.142;16.290;2023-07-31T15:11:57;1.50;;;1.40;;
14094;SDS011;18096;48.142;16.290;2023-07-31T15:14:23;1.30;;;1.30;;
14094;SDS011;18096;48.142;16.290;2023-07-31T15:16:49;2.60;;;1.73;;
14094;SDS011;18096;48.142;16.290;2023-07-31T15:19:15;1.67;;;1.58;;
14094;SDS011;18096;48.142;16.290;2023-07-31T15:21:41;2.22;;;1.67;;
14094;SDS011;18096;48.142;16.290;2023-07-31T15:24:07;1.73;;;1.63;;
14094;SDS011;18096;48.142;16.290;2023-07-31T15:26:32;3.83;;;2.10;;
14094;SDS011;18096;48.142;16.290;2023-07-31T15:29:02;2.10;;;1.50;;
14094;SDS011;18096;48.142;16.290;2023-07-31T15:31:40;2.80;;;1.50;;
14094;SDS011;18096;48.142;16.290;2023-07-31T15:34:06;1.52;;;1.42;;
14094;SDS011;18096;48.142;16.290;2023-07-31T15:36:32;2.22;;;2.13;;
14094;SDS011;18096;48.142;16.290;2023-07-31T15:38:58;2.85;;;2.20;;
14094;SDS011;18096;48.142;16.290;2023-07-31T15:41:24;3.08;;;1.50;;
14094;SDS011;18096;48.142;16.290;2023-07-31T15:43:50;3.15;;;1.40;;
14094;SDS011;18096;48.142;16.290;2023-07-31T15:46:16;2.65;;;1.60;;
14094;SDS011;18096;48.142;16.290;2023-07-31T15:48:42;2.53;;;1.50;;
14094;SDS011;18096;48.142;16.290;2023-07-31T15:51:08;2.20;;;1.30;;
14094;SDS011;18096;48.142;16.290;2023-07-31T15:53:34;2.20;;;1.40;;
14094;SDS011;18096;48.142;16.290;2023-07-31T15:55:59;1.70;;;1.60;;
14094;SDS011;18096;48.142;16.290;2023-07-31T15:58:25;2.50;;;1.60;;
14094;SDS011;18096;48.142;16.290;2023-07-31T16:00:50;4.53;;;1.30;;
14094;SDS011;18096;48.142;16.290;2023-07-31T16:03:16;2.95;;;1.40;;
14094;SDS011;18096;48.142;16.290;2023-07-31T16:05:42;2.80;;;1.40;;
14094;SDS011;18096;48.142;16.290;2023-07-31T16:08:07;4.73;;;1.27;;
14094;SDS011;18096;48.142;16.290;2023-07-31T16:10:33;2.47;;;1.70;;
14094;SDS011;18096;48.142;16.290;2023-07-31T16:12:59;2.17;;;1.55;;
14094;SDS011;18096;48.142;16.290;2023-07-31T16:15:25;2.53;;;2.10;;
14094;SDS011;18096;48.142;16.290;2023-07-31T16:17:50;1.63;;;1.50;;
14094;SDS011;18096;48.142;16.290;2023-07-31T16:20:16;2.03;;;1.83;;
14094;SDS011;18096;48.142;16.290;2023-07-31T16:22:42;3.27;;;1.53;;
14094;SDS011;18096;48.142;16.290;2023-07-31T16:25:09;7.22;;;2.10;;
14094;SDS011;18096;48.142;16.290;2023-07-31T16:27:35;3.40;;;1.87;;
14094;SDS011;18096;48.142;16.290;2023-07-31T16:30:01;4.05;;;2.00;;
14094;SDS011;18096;48.142;16.290;2023-07-31T16:32:28;3.67;;;1.48;;
14094;SDS011;18096;48.142;16.290;2023-07-31T16:34:54;3.40;;;1.80;;
14094;SDS011;18096;48.142;16.290;2023-07-31T16:37:19;2.03;;;1.83;;
14094;SDS011;18096;48.142;16.290;2023-07-31T16:39:45;3.40;;;1.60;;
14094;SDS011;18096;48.142;16.290;2023-07-31T16:42:13;1.70;;;1.60;;
14094;SDS011;18096;48.142;16.290;2023-07-31T16:44:39;4.07;;;2.00;;
14094;SDS011;18096;48.142;16.290;2023-07-31T16:47:05;1.85;;;1.50;;
14094;SDS011;18096;48.142;16.290;2023-07-31T16:49:31;5.10;;;3.20;;
14094;SDS011;18096;48.142;16.290;2023-07-31T16:51:57;4.07;;;2.40;;
14094;SDS011;18096;48.142;16.290;2023-07-31T16:54:22;9.07;;;2.23;;
14094;SDS011;18096;48.142;16.290;2023-07-31T16:56:48;5.53;;;2.10;;
14094;SDS011;18096;48.142;16.290;2023-07-31T16:59:15;1.80;;;1.70;;
14094;SDS011;18096;48.142;16.290;2023-07-31T17:01:42;3.67;;;1.92;;
14094;SDS011;18096;48.142;16.290;2023-07-31T17:04:08;7.57;;;3.00;;
14094;SDS011;18096;48.142;16.290;2023-07-31T17:06:33;4.45;;;2.45;;
14094;SDS011;18096;48.142;16.290;2023-07-31T17:08:59;4.63;;;2.65;;
14094;SDS011;18096;48.142;16.290;2023-07-31T17:11:25;3.97;;;2.40;;
14094;SDS011;18096;48.142;16.290;2023-07-31T17:13:51;9.27;;;2.63;;
14094;SDS011;18096;48.142;16.290;2023-07-31T17:16:17;2.83;;;2.22;;
14094;SDS011;18096;48.142;16.290;2023-07-31T17:18:46;2.22;;;1.83;;
14094;SDS011;18096;48.142;16.290;2023-07-31T17:21:13;3.80;;;1.90;;
14094;SDS011;18096;48.142;16.290;2023-07-31T17:23:39;8.95;;;1.85;;
14094;SDS011;18096;48.142;16.290;2023-07-31T17:26:04;3.00;;;1.90;;
14094;SDS011;18096;48.142;16.290;2023-07-31T17:28:31;3.00;;;1.98;;
14094;SDS011;18096;48.142;16.290;2023-07-31T17:30:57;5.95;;;3.15;;
14094;SDS011;18096;48.142;16.290;2023-07-31T17:33:24;4.90;;;3.10;;
14094;SDS011;18096;48.142;16.290;2023-07-31T17:35:50;8.87;;;3.20;;
14094;SDS011;18096;48.142;16.290;2023-07-31T17:38:16;4.53;;;3.63;;
14094;SDS011;18096;48.142;16.290;2023-07-31T17:40:42;6.72;;;3.38;;
14094;SDS011;18096;48.142;16.290;2023-07-31T17:43:08;6.68;;;5.15;;
14094;SDS011;18096;48.142;16.290;2023-07-31T17:45:35;9.82;;;6.35;;
14094;SDS011;18096;48.142;16.290;2023-07-31T17:48:01;7.80;;;5.85;;
14094;SDS011;18096;48.142;16.290;2023-07-31T17:50:28;9.13;;;5.23;;
14094;SDS011;18096;48.142;16.290;2023-07-31T17:52:55;11.00;;;6.25;;
14094;SDS011;18096;48.142;16.290;2023-07-31T17:55:22;8.45;;;4.95;;
14094;SDS011;18096;48.142;16.290;2023-07-31T17:57:48;4.18;;;3.55;;
14094;SDS011;18096;48.142;16.290;2023-07-31T18:00:14;4.00;;;3.60;;
14094;SDS011;18096;48.142;16.290;2023-07-31T18:02:41;3.25;;;2.90;;
14094;SDS011;18096;48.142;16.290;2023-07-31T18:05:07;4.07;;;2.50;;
14094;SDS011;18096;48.142;16.290;2023-07-31T18:07:33;2.60;;;2.40;;
14094;SDS011;18096;48.142;16.290;2023-07-31T18:10:00;9.43;;;2.22;;
14094;SDS011;18096;48.142;16.290;2023-07-31T18:12:26;2.20;;;1.87;;
14094;SDS011;18096;48.142;16.290;2023-07-31T18:14:54;3.90;;;2.40;;
14094;SDS011;18096;48.142;16.290;2023-07-31T18:17:20;1.98;;;1.80;;
14094;SDS011;18096;48.142;16.290;2023-07-31T18:19:46;3.35;;;2.50;;
14094;SDS011;18096;48.142;16.290;2023-07-31T18:22:13;5.35;;;2.40;;
14094;SDS011;18096;48.142;16.290;2023-07-31T18:24:40;3.20;;;2.75;;
14094;SDS011;18096;48.142;16.290;2023-07-31T18:27:06;3.10;;;2.10;;
14094;SDS011;18096;48.142;16.290;2023-07-31T18:29:33;4.93;;;2.35;;
14094;SDS011;18096;48.142;16.290;2023-07-31T18:32:01;1.88;;;1.70;;
14094;SDS011;18096;48.142;16.290;2023-07-31T18:34:29;2.75;;;2.00;;
14094;SDS011;18096;48.142;16.290;2023-07-31T18:36:55;6.93;;;2.28;;
14094;SDS011;18096;48.142;16.290;2023-07-31T18:39:22;6.90;;;2.55;;
14094;SDS011;18096;48.142;16.290;2023-07-31T18:41:48;2.70;;;2.10;;
14094;SDS011;18096;48.142;16.290;2023-07-31T18:44:14;3.10;;;2.80;;
14094;SDS011;18096;48.142;16.290;2023-07-31T18:46:40;5.40;;;3.10;;
14094;SDS011;18096;48.142;16.290;2023-07-31T18:49:07;5.20;;;2.63;;
14094;SDS011;18096;48.142;16.290;2023-07-31T18:51:33;8.85;;;2.70;;
14094;SDS011;18096;48.142;16.290;2023-07-31T18:54:03;2.88;;;2.55;;
14094;SDS011;18096;48.142;16.290;2023-07-31T18:56:30;2.80;;;2.40;;
14094;SDS011;18096;48.142;16.290;2023-07-31T18:58:57;3.60;;;2.10;;
14094;SDS011;18096;48.142;16.290;2023-07-31T19:01:23;2.90;;;2.08;;
14094;SDS011;18096;48.142;16.290;2023-07-31T19:03:50;7.10;;;2.45;;
14094;SDS011;18096;48.142;16.290;2023-07-31T19:06:16;3.55;;;2.15;;
14094;SDS011;18096;48.142;16.290;2023-07-31T19:08:42;2.60;;;2.20;;
14094;SDS011;18096;48.142;16.290;2023-07-31T19:11:09;8.13;;;2.00;;
14094;SDS011;18096;48.142;16.290;2023-07-31T19:13:41;4.30;;;2.40;;
14094;SDS011;18096;48.142;16.290;2023-07-31T19:16:10;3.42;;;2.75;;
14094;SDS011;18096;48.142;16.290;2023-07-31T19:18:36;3.50;;;2.50;;
14094;SDS011;18096;48.142;16.290;2023-07-31T19:21:03;3.10;;;2.50;;
14094;SDS011;18096;48.142;16.290;2023-07-31T19:23:29;9.07;;;3.00;;
14094;SDS011;18096;48.142;16.290;2023-07-31T19:25:55;3.20;;;2.10;;
14094;SDS011;18096;48.142;16.290;2023-07-31T19:28:22;3.03;;;2.67;;
14094;SDS011;18096;48.142;16.290;2023-07-31T19:30:48;3.30;;;2.70;;
14094;SDS011;18096;48.142;16.290;2023-07-31T19:33:14;7.20;;;3.80;;
14094;SDS011;18096;48.142;16.290;2023-07-31T19:35:41;6.20;;;3.00;;
14094;SDS011;18096;48.142;16.290;2023-07-31T19:38:07;2.92;;;2.72;;
14094;SDS011;18096;48.142;16.290;2023-07-31T19:40:33;9.17;;;3.10;;
14094;SDS011;18096;48.142;16.290;2023-07-31T19:42:59;3.38;;;2.90;;
14094;SDS011;18096;48.142;16.290;2023-07-31T19:45:27;3.47;;;3.00;;
14094;SDS011;18096;48.142;16.290;2023-07-31T19:47:55;3.43;;;2.67;;
14094;SDS011;18096;48.142;16.290;2023-07-31T19:50:22;4.38;;;2.65;;
14094;SDS011;18096;48.142;16.290;2023-07-31T19:52:48;2.50;;;2.30;;
14094;SDS011;18096;48.142;16.290;2023-07-31T19:55:14;2.97;;;2.20;;
14094;SDS011;18096;48.142;16.290;2023-07-31T19:57:41;6.50;;;2.40;;
14094;SDS011;18096;48.142;16.290;2023-07-31T20:00:07;2.65;;;2.45;;
14094;SDS011;18096;48.142;16.290;2023-07-31T20:02:34;3.60;;;2.50;;
14094;SDS011;18096;48.142;16.290;2023-07-31T20:05:00;2.30;;;2.10;;
14094;SDS011;18096;48.142;16.290;2023-07-31T20:07:26;4.40;;;3.05;;
14094;SDS011;18096;48.142;16.290;2023-07-31T20:09:53;3.42;;;2.33;;
14094;SDS011;18096;48.142;16.290;2023-07-31T20:12:23;2.50;;;2.30;;
14094;SDS011;18096;48.142;16.290;2023-07-31T20:14:52;3.10;;;2.80;;
14094;SDS011;18096;48.142;16.290;2023-07-31T20:17:20;2.22;;;2.03;;
14094;SDS011;18096;48.142;16.290;2023-07-31T20:19:47;4.90;;;2.90;;
14094;SDS011;18096;48.142;16.290;2023-07-31T20:22:14;7.68;;;2.30;;
14094;SDS011;18096;48.142;16.290;2023-07-31T20:24:40;3.55;;;3.25;;
14094;SDS011;18096;48.142;16.290;2023-07-31T20:27:06;2.20;;;2.00;;
14094;SDS011;18096;48.142;16.290;2023-07-31T20:29:33;5.40;;;2.22;;
14094;SDS011;18096;48.142;16.290;2023-07-31T20:31:59;2.58;;;2.38;;
14094;SDS011;18096;48.142;16.290;2023-07-31T20:34:25;3.40;;;3.10;;
14094;SDS011;18096;48.142;16.290;2023-07-31T20:36:52;5.88;;;2.00;;
14094;SDS011;18096;48.142;16.290;2023-07-31T20:39:18;3.67;;;2.23;;
14094;SDS011;18096;48.142;16.290;2023-07-31T20:41:44;4.27;;;2.33;;
14094;SDS011;18096;48.142;16.290;2023-07-31T20:44:12;2.70;;;2.30;;
14094;SDS011;18096;48.142;16.290;2023-07-31T20:46:38;3.00;;;2.58;;
14094;SDS011;18096;48.142;16.290;2023-07-31T20:49:04;3.83;;;2.58;;
14094;SDS011;18096;48.142;16.290;2023-07-31T20:51:31;5.03;;;2.03;;
14094;SDS011;18096;48.142;16.290;2023-07-31T20:53:57;2.00;;;1.77;;
14094;SDS011;18096;48.142;16.290;2023-07-31T20:56:23;2.65;;;2.20;;
14094;SDS011;18096;48.142;16.290;2023-07-31T20:58:49;3.78;;;2.42;;
14094;SDS011;18096;48.142;16.290;2023-07-31T21:01:16;4.95;;;2.15;;
14094;SDS011;18096;48.142;16.290;2023-07-31T21:03:41;4.97;;;2.10;;
14094;SDS011;18096;48.142;16.290;2023-07-31T21:06:07;1.90;;;1.80;;
14094;SDS011;18096;48.142;16.290;2023-07-31T21:08:33;1.73;;;1.63;;
14094;SDS011;18096;48.142;16.290;2023-07-31T21:10:58;8.40;;;2.30;;
14094;SDS011;18096;48.142;16.290;2023-07-31T21:13:24;1.90;;;1.80;;
14094;SDS011;18096;48.142;16.290;2023-07-31T21:15:50;2.55;;;2.00;;
14094;SDS011;18096;48.142;16.290;2023-07-31T21:18:15;7.63;;;2.03;;
14094;SDS011;18096;48.142;16.290;2023-07-31T21:20:45;4.05;;;2.28;;
14094;SDS011;18096;48.142;16.290;2023-07-31T21:23:13;3.25;;;2.10;;
14094;SDS011;18096;48.142;16.290;2023-07-31T21:25:38;2.23;;;2.13;;
14094;SDS011;18096;48.142;16.290;2023-07-31T21:28:04;5.20;;;2.40;;
14094;SDS011;18096;48.142;16.290;2023-07-31T21:30:30;7.27;;;2.40;;
14094;SDS011;18096;48.142;16.290;2023-07-31T21:32:56;2.95;;;2.28;;
14094;SDS011;18096;48.142;16.290;2023-07-31T21:35:22;2.95;;;2.25;;
14094;SDS011;18096;48.142;16.290;2023-07-31T21:37:48;6.10;;;2.20;;
14094;SDS011;18096;48.142;16.290;2023-07-31T21:40:13;5.10;;;2.00;;
14094;SDS011;18096;48.142;16.290;2023-07-31T21:42:39;2.42;;;2.22;;
14094;SDS011;18096;48.142;16.290;2023-07-31T21:45:05;1.90;;;1.80;;
14094;SDS011;18096;48.142;16.290;2023-07-31T21:47:31;2.50;;;2.00;;
14094;SDS011;18096;48.142;16.290;2023-07-31T21:49:57;10.57;;;2.73;;
14094;SDS011;18096;48.142;16.290;2023-07-31T21:52:22;3.63;;;2.20;;
14094;SDS011;18096;48.142;16.290;2023-07-31T21:54:48;2.60;;;2.40;;
14094;SDS011;18096;48.142;16.290;2023-07-31T21:57:13;2.13;;;1.93;;
14094;SDS011;18096;48.142;16.290;2023-07-31T21:59:39;2.00;;;1.80;;
14094;SDS011;18096;48.142;16.290;2023-07-31T22:02:05;3.67;;;2.60;;
14094;SDS011;18096;48.142;16.290;2023-07-31T22:04:31;2.00;;;1.80;;
14094;SDS011;18096;48.142;16.290;2023-07-31T22:06:57;3.70;;;1.75;;
14094;SDS011;18096;48.142;16.290;2023-07-31T22:09:23;2.40;;;2.20;;
14094;SDS011;18096;48.142;16.290;2023-07-31T22:11:48;3.97;;;2.10;;
